Pagina principale
METAR-TAF:

METAR-TAF

Aeroporti :

RAF Ascension Island

Georgetown, Ascensione

latitudine: 07-58S, longitudine: 014-24W, altezza: 86 m

METAR: mancante

Ora: 22:44 (22:44 UTC)

Previsione

Il bollettino è stato emesso 3 ore e 14 minuti fa, alle 19:30 UTC
Previsione valida dal 18 alle 21 UTC al 19 alle 15 UTC
Vento 12 kt da sud-est
Visibilità 10 km o più
Poco nuvoloso ad un'altezza di 2500 ft

TAF: FHAW 181930Z 1821/1915 14012KT 9999 FEW025

Osservazioni e previsioni meteorologiche di più di 4000 aeroporti (messaggi METAR e TAF).

Le stazioni disponibili sono rappresentate dai dischi gialli e rossi sulla carta.

Puntare il mouse per vedere il nome della stazione.

Clicca sopra per visualizzare le osservazioni e previsioni meteorologiche.

Per cambiare la mappa : fare clic sui pulsanti verdi con una croce nera per ingrandire, il pulsante verde con un trattino per diminuire, o sulla freccia verde per le mappe adiacenti.


METAR-TAF: